Andersonville, Virginia
Current Conditions -  °F | °C
As of 10:55 AM on Thursday 27 Nov 2014 (Local Time) from KFVX Reporting Station
Overcast Overcast  
Wind Chill: 46°   Ceiling: 900
Heat Index: 46°   Visibility: 10mi
Dew Point: 46°   Wind: 3mph
Humidity: 99%   Direction: 220°SW
Pressure: 30.04"   Gusts: NA
Location:  37.47°N, 78.57°W
Report Text: KFVX 271555Z AUTO 22003KT 10SM BKN009 OVC014 08/08 A3004 RMK AO2 T00770076
Loading
Personal Weather Stations






























Interactive Weather Map New forecast layout! Learn more

10-Day Weather Forecast

Advertisements
Track Severe Weather on mobile